createdAt,value
2022-09-12T00:00:26.405Z,101117.72
2022-09-12T00:03:17.002Z,101131.00
2022-09-12T00:05:48.063Z,101116.00
2022-09-12T00:08:18.241Z,101123.97
2022-09-12T00:10:49.653Z,101129.25
2022-09-12T00:13:19.883Z,101134.56
2022-09-12T00:15:49.793Z,101133.66
2022-09-12T00:18:20.291Z,101130.13
2022-09-12T00:20:50.891Z,101131.03
2022-09-12T00:23:21.014Z,101127.47
2022-09-12T00:25:52.591Z,101129.25
2022-09-12T00:28:22.593Z,101127.47
2022-09-12T00:30:52.794Z,101124.81
2022-09-12T00:33:22.848Z,101130.13
2022-09-12T00:35:54.313Z,101124.84
2022-09-12T00:38:24.241Z,101125.72
2022-09-12T00:40:55.891Z,101131.91
2022-09-12T00:43:40.755Z,101126.56
2022-09-12T00:46:20.981Z,101124.84
2022-09-12T00:48:56.083Z,101123.97
2022-09-12T00:51:26.481Z,101123.97
2022-09-12T00:53:59.706Z,101122.19
2022-09-12T00:56:31.633Z,101120.41
2022-09-12T00:59:07.041Z,101117.78
2022-09-12T01:01:38.083Z,101131.91
2022-09-12T01:04:08.554Z,101127.50
2022-09-12T01:06:41.647Z,101130.19
2022-09-12T01:09:13.865Z,101117.78
2022-09-12T01:11:47.421Z,101124.88
2022-09-12T01:14:19.959Z,101127.50
2022-09-12T01:16:52.304Z,101129.31
2022-09-12T01:19:46.523Z,101119.59
2022-09-12T01:22:32.859Z,101131.97
2022-09-12T01:25:13.065Z,101131.09
2022-09-12T01:28:24.427Z,101129.31
2022-09-12T01:31:01.753Z,101129.31
2022-09-12T01:33:40.634Z,101127.53
2022-09-12T01:36:26.959Z,101124.03
2022-09-12T01:39:02.200Z,101124.91
2022-09-12T01:41:41.397Z,101124.06
2022-09-12T01:44:20.407Z,101131.97
2022-09-12T01:46:59.641Z,101124.03
2022-09-12T01:49:34.949Z,101130.25
2022-09-12T01:52:12.957Z,101129.38
2022-09-12T01:54:48.579Z,101127.59
2022-09-12T01:57:25.971Z,101125.81
2022-09-12T02:00:01.617Z,101139.94
2022-09-12T02:02:37.177Z,101131.13
2022-09-12T02:05:12.127Z,101124.03
2022-09-12T02:07:47.249Z,101125.81
2022-09-12T02:10:20.947Z,101132.88
2022-09-12T02:12:55.029Z,101132.88
2022-09-12T02:15:30.988Z,101134.66
2022-09-12T02:18:04.968Z,101132.00
2022-09-12T02:20:54.366Z,101132.03
2022-09-12T02:23:28.847Z,101137.31
2022-09-12T02:26:05.267Z,101143.47
2022-09-12T02:28:39.789Z,101133.78
2022-09-12T02:31:16.158Z,101140.84
2022-09-12T02:33:55.233Z,101139.97
2022-09-12T02:36:36.240Z,101132.88
2022-09-12T02:39:06.709Z,101130.25
2022-09-12T02:41:37.159Z,101134.66
2022-09-12T02:44:07.778Z,101131.16
2022-09-12T02:46:43.700Z,101130.28
2022-09-12T02:49:15.630Z,101129.38
2022-09-12T02:51:46.638Z,101128.50
2022-09-12T02:54:19.237Z,101129.38
2022-09-12T02:56:49.608Z,101135.56
2022-09-12T02:59:23.589Z,101137.31
2022-09-12T03:02:09.354Z,101134.69
2022-09-12T03:05:07.228Z,101135.53
2022-09-12T03:07:57.938Z,101138.22
2022-09-12T03:10:36.567Z,101139.09
2022-09-12T03:13:19.280Z,101102.03
2022-09-12T03:16:01.898Z,101140.84
2022-09-12T03:18:53.266Z,101144.38
2022-09-12T03:21:33.811Z,101146.19
2022-09-12T03:24:15.653Z,101146.19
2022-09-12T03:26:49.976Z,101152.34
2022-09-12T03:29:21.016Z,101152.38
2022-09-12T03:31:53.573Z,101155.03
2022-09-12T03:34:25.473Z,101163.84
2022-09-12T03:36:57.604Z,101164.75
2022-09-12T03:39:28.296Z,101170.03
2022-09-12T03:41:58.824Z,101163.00
2022-09-12T03:44:29.467Z,101162.09
2022-09-12T03:46:59.585Z,101163.84
2022-09-12T03:49:29.515Z,101166.53
2022-09-12T03:52:01.133Z,101165.63
2022-09-12T03:54:31.036Z,101170.94
2022-09-12T03:57:01.255Z,101165.63
2022-09-12T03:59:31.333Z,101170.03
2022-09-12T04:02:01.324Z,101165.63
2022-09-12T04:04:31.551Z,101164.75
2022-09-12T04:07:03.152Z,101162.13
2022-09-12T04:09:33.316Z,101165.66
2022-09-12T04:12:03.773Z,101163.88
2022-09-12T04:14:34.146Z,101169.19
2022-09-12T04:17:04.505Z,101172.72
2022-09-12T04:19:34.395Z,101169.16
2022-09-12T04:22:06.206Z,101163.84
2022-09-12T04:24:35.854Z,101168.28
2022-09-12T04:27:07.804Z,101170.03
2022-09-12T04:29:38.076Z,101170.03
2022-09-12T04:32:08.503Z,101177.97
2022-09-12T04:34:39.524Z,101178.88
2022-09-12T04:37:12.024Z,101182.41
2022-09-12T04:39:42.094Z,101183.28
2022-09-12T04:42:12.854Z,101186.81
2022-09-12T04:44:42.844Z,101185.06
2022-09-12T04:47:13.157Z,101188.59
2022-09-12T04:49:43.435Z,101184.16
2022-09-12T04:52:14.834Z,101188.53
2022-09-12T04:54:45.095Z,101194.75
2022-09-12T04:57:15.034Z,101190.31
2022-09-12T04:59:45.124Z,101192.06
2022-09-12T05:02:15.312Z,101192.97
2022-09-12T05:04:47.215Z,101193.84
2022-09-12T05:07:19.531Z,101191.13
2022-09-12T05:09:49.976Z,101191.97
2022-09-12T05:12:20.156Z,101192.84
2022-09-12T05:14:50.171Z,101190.22
2022-09-12T05:17:20.316Z,101198.16
2022-09-12T05:19:51.186Z,101191.03
2022-09-12T05:22:23.154Z,101193.66
2022-09-12T05:24:53.542Z,101198.84
2022-09-12T05:27:23.603Z,101197.00
2022-09-12T05:29:53.995Z,101201.34
2022-09-12T05:32:24.193Z,101200.41
2022-09-12T05:34:54.203Z,101199.47
2022-09-12T05:37:25.584Z,101200.31
2022-09-12T05:39:56.029Z,101201.06
2022-09-12T05:42:26.133Z,101205.38
2022-09-12T05:44:56.043Z,101203.56
2022-09-12T05:47:26.275Z,101196.28
2022-09-12T05:49:56.273Z,101202.34
2022-09-12T05:52:27.585Z,101204.03
2022-09-12T05:54:57.936Z,101199.47
2022-09-12T05:57:27.986Z,101207.25
2022-09-12T05:59:59.437Z,101203.53
2022-09-12T06:02:29.648Z,101203.41
2022-09-12T06:04:59.878Z,101210.38
2022-09-12T06:07:32.335Z,101211.91
2022-09-12T06:10:02.575Z,101203.75
2022-09-12T06:12:32.596Z,101204.47
2022-09-12T06:15:02.878Z,101203.34
2022-09-12T06:17:32.816Z,101204.88
2022-09-12T06:20:04.354Z,101210.94
2022-09-12T06:22:36.053Z,101201.94
2022-09-12T06:25:06.454Z,101199.94
2022-09-12T06:27:36.563Z,101203.19
2022-09-12T06:30:07.434Z,101205.28
2022-09-12T06:32:37.595Z,101209.97
2022-09-12T06:35:08.153Z,101201.47
2022-09-12T06:37:40.996Z,101204.69
2022-09-12T06:40:12.676Z,101204.22
2022-09-12T06:42:42.903Z,101208.09
2022-09-12T06:45:13.254Z,101204.63
2022-09-12T06:47:43.306Z,101207.69
2022-09-12T06:50:13.675Z,101214.09
2022-09-12T06:52:45.146Z,101206.91
2022-09-12T06:55:19.844Z,101205.88
2022-09-12T06:57:50.913Z,101202.97
2022-09-12T07:00:22.416Z,101206.31
2022-09-12T07:02:57.045Z,101199.25
2022-09-12T07:05:28.423Z,101209.13
2022-09-12T07:07:59.864Z,101212.88
2022-09-12T07:10:31.341Z,101221.81
2022-09-12T07:13:01.305Z,101224.78
2022-09-12T07:15:31.745Z,101225.41
2022-09-12T07:18:01.593Z,101216.75
2022-09-12T07:20:33.455Z,101224.47
2022-09-12T07:23:05.453Z,101217.75
2022-09-12T07:25:36.333Z,101223.56
2022-09-12T07:28:06.556Z,101235.53
2022-09-12T07:30:40.322Z,101231.81
2022-09-12T07:33:10.570Z,101230.03
2022-09-12T07:35:41.013Z,101241.00
2022-09-12T07:38:12.471Z,101238.00
2022-09-12T07:40:42.703Z,101230.50
2022-09-12T07:43:12.793Z,101236.81
2022-09-12T07:45:43.667Z,101228.50
2022-09-12T07:48:14.223Z,101232.63
2022-09-12T07:50:45.253Z,101238.00
2022-09-12T07:53:16.715Z,101241.44
2022-09-12T07:55:54.723Z,101241.25
2022-09-12T07:58:25.527Z,101238.47
2022-09-12T08:00:55.811Z,101249.97
2022-09-12T08:03:25.943Z,101245.66
2022-09-12T08:05:56.116Z,101246.06
2022-09-12T08:08:27.714Z,101241.41
2022-09-12T08:11:00.173Z,101243.22
2022-09-12T08:13:30.761Z,101240.16
2022-09-12T08:16:02.471Z,101240.28
2022-09-12T08:18:34.235Z,101242.16
2022-09-12T08:21:06.388Z,101251.00
2022-09-12T08:23:37.965Z,101245.44
2022-09-12T08:26:08.817Z,101242.84
2022-09-12T08:28:41.056Z,101255.59
2022-09-12T08:31:15.151Z,101258.13
2022-09-12T08:33:46.005Z,101254.44
2022-09-12T08:36:18.323Z,101252.03
2022-09-12T08:38:51.636Z,101250.75
2022-09-12T08:41:30.656Z,101254.59
2022-09-12T08:44:24.013Z,101254.22
2022-09-12T08:47:13.002Z,101260.25
2022-09-12T08:49:52.675Z,101250.91
2022-09-12T08:52:29.174Z,101257.78
2022-09-12T08:55:01.854Z,101257.63
2022-09-12T08:57:32.224Z,101253.34
2022-09-12T09:00:06.565Z,101254.84
2022-09-12T09:03:12.658Z,101250.72
2022-09-12T09:05:52.363Z,101254.47
2022-09-12T09:08:38.755Z,101256.44
2022-09-12T09:11:31.163Z,101264.22
2022-09-12T09:14:31.093Z,101259.34
2022-09-12T09:17:03.555Z,101259.34
2022-09-12T09:19:39.074Z,101258.88
2022-09-12T09:22:14.759Z,101265.03
2022-09-12T09:24:50.223Z,101271.78
2022-09-12T09:27:47.158Z,101273.84
2022-09-12T09:30:19.835Z,101275.06
2022-09-12T09:32:53.945Z,101263.22
2022-09-12T09:35:36.526Z,101260.53
2022-09-12T09:38:20.144Z,101257.56
2022-09-12T09:41:00.153Z,101273.03
2022-09-12T09:43:32.729Z,101279.22
2022-09-12T09:46:03.256Z,101278.34
2022-09-12T09:48:35.330Z,101281.72
2022-09-12T09:51:09.602Z,101265.22
2022-09-12T09:53:46.963Z,101262.84
2022-09-12T09:56:28.529Z,101261.84
2022-09-12T09:59:10.033Z,101264.47
2022-09-12T10:01:45.058Z,101277.06
2022-09-12T10:04:22.074Z,101272.13
2022-09-12T10:06:54.865Z,101272.00
2022-09-12T10:09:27.473Z,101273.31
2022-09-12T10:11:58.945Z,101278.66
2022-09-12T10:14:40.736Z,101273.34
2022-09-12T10:17:34.693Z,101267.47
2022-09-12T10:20:22.475Z,101268.31
2022-09-12T10:22:52.987Z,101261.66
2022-09-12T10:25:26.505Z,101263.84
2022-09-12T10:28:00.773Z,101265.03
2022-09-12T10:30:32.273Z,101264.28
2022-09-12T10:33:13.895Z,101273.69
2022-09-12T10:35:50.467Z,101261.53
2022-09-12T10:38:25.705Z,101266.69
2022-09-12T10:41:03.845Z,101264.09
2022-09-12T10:43:38.753Z,101267.41
2022-09-12T10:46:31.066Z,101264.91
2022-09-12T10:49:23.303Z,101259.34
2022-09-12T10:51:54.679Z,101267.84
2022-09-12T10:54:27.668Z,101263.06
2022-09-12T10:57:21.946Z,101263.53
2022-09-12T11:00:18.213Z,101269.63
2022-09-12T11:03:17.685Z,101259.06
2022-09-12T11:05:56.296Z,101264.91
2022-09-12T11:08:42.665Z,101269.16
2022-09-12T11:11:24.644Z,101268.38
2022-09-12T11:14:11.224Z,101260.84
2022-09-12T11:16:50.804Z,101261.03
2022-09-12T11:19:48.201Z,101266.81
2022-09-12T11:22:38.097Z,101261.25
2022-09-12T11:25:33.316Z,101262.06
2022-09-12T11:28:23.215Z,101271.44
2022-09-12T11:31:15.240Z,101267.41
2022-09-12T11:33:47.934Z,101272.09
2022-09-12T11:36:43.055Z,101274.56
2022-09-12T11:39:16.893Z,101267.91
2022-09-12T11:41:52.813Z,101273.00
2022-09-12T11:44:28.923Z,101275.72
2022-09-12T11:46:59.803Z,101277.84
2022-09-12T11:49:38.126Z,101265.69
2022-09-12T11:52:17.699Z,101276.03
2022-09-12T11:54:53.888Z,101274.84
2022-09-12T11:57:32.415Z,101276.09
2022-09-12T12:00:07.354Z,101268.91
2022-09-12T12:02:43.965Z,101272.94
2022-09-12T12:05:22.055Z,101274.78
2022-09-12T12:07:58.895Z,101277.28
2022-09-12T12:10:37.179Z,101276.25
2022-09-12T12:13:14.334Z,101280.13
2022-09-12T12:15:49.760Z,101278.72
2022-09-12T12:18:22.032Z,101286.47
2022-09-12T12:20:53.333Z,101284.19
2022-09-12T12:23:31.395Z,101282.06
2022-09-12T12:26:04.133Z,101284.41
2022-09-12T12:29:01.297Z,101279.91
2022-09-12T12:31:31.580Z,101277.34
2022-09-12T12:34:24.414Z,101287.03
2022-09-12T12:36:54.634Z,101282.03
2022-09-12T12:40:01.497Z,101293.63
2022-09-12T12:43:23.003Z,101288.16
2022-09-12T12:46:16.175Z,101282.38
2022-09-12T12:48:55.465Z,101289.69
2022-09-12T12:52:01.727Z,101282.44
2022-09-12T12:54:57.987Z,101280.25
2022-09-12T12:57:48.818Z,101278.50
2022-09-12T13:00:32.524Z,101284.34
2022-09-12T13:03:12.156Z,101284.06
2022-09-12T13:05:45.634Z,101287.75
2022-09-12T13:08:31.982Z,101281.97
2022-09-12T13:11:07.676Z,101284.31
2022-09-12T13:13:43.374Z,101281.72
2022-09-12T13:16:14.038Z,101277.47
2022-09-12T13:18:48.058Z,101276.97
2022-09-12T13:21:20.255Z,101275.72
2022-09-12T13:24:03.023Z,101277.34
2022-09-12T13:26:41.845Z,101277.50
2022-09-12T13:29:14.226Z,101274.91
2022-09-12T13:31:47.533Z,101267.97
2022-09-12T13:34:22.634Z,101277.06
2022-09-12T13:37:26.485Z,101268.03
2022-09-12T13:40:07.729Z,101268.09
2022-09-12T13:42:42.986Z,101276.19
2022-09-12T13:45:21.385Z,101272.19
2022-09-12T13:47:58.470Z,101266.06
2022-09-12T13:50:33.963Z,101275.81
2022-09-12T13:53:07.385Z,101266.38
2022-09-12T13:55:40.522Z,101271.78
2022-09-12T13:58:21.144Z,101274.50
2022-09-12T14:01:04.196Z,101275.81
2022-09-12T14:03:58.966Z,101278.91
2022-09-12T14:06:36.976Z,101278.13
2022-09-12T14:09:16.477Z,101267.59
2022-09-12T14:11:46.534Z,101270.31
2022-09-12T14:14:28.286Z,101269.19
2022-09-12T14:16:59.263Z,101268.81
2022-09-12T14:19:30.274Z,101273.59
2022-09-12T14:22:02.408Z,101269.47
2022-09-12T14:24:33.585Z,101268.66
2022-09-12T14:27:03.645Z,101268.38
2022-09-12T14:29:35.114Z,101273.81
2022-09-12T14:32:07.237Z,101267.56
2022-09-12T14:34:39.097Z,101268.81
2022-09-12T14:37:10.935Z,101277.25
2022-09-12T14:39:44.445Z,101274.16
2022-09-12T14:42:18.247Z,101278.06
2022-09-12T14:44:58.791Z,101277.34
2022-09-12T14:47:40.455Z,101272.03
2022-09-12T14:50:18.653Z,101268.31
2022-09-12T14:53:06.468Z,101271.03
2022-09-12T14:55:44.901Z,101281.31
2022-09-12T14:58:26.432Z,101270.94
2022-09-12T15:01:04.255Z,101284.38
2022-09-12T15:03:37.113Z,101280.84
2022-09-12T15:06:22.263Z,101280.81
2022-09-12T15:08:55.843Z,101283.59
2022-09-12T15:11:26.085Z,101283.53
2022-09-12T15:13:56.905Z,101281.97
2022-09-12T15:16:27.263Z,101284.50
2022-09-12T15:18:57.305Z,101290.13
2022-09-12T15:21:27.451Z,101293.63
2022-09-12T15:23:59.124Z,101291.38
2022-09-12T15:26:31.914Z,101292.31
2022-09-12T15:29:02.175Z,101294.38
2022-09-12T15:31:34.121Z,101284.69
2022-09-12T15:34:05.073Z,101289.38
2022-09-12T15:36:35.142Z,101282.41
2022-09-12T15:39:07.437Z,101284.19
2022-09-12T15:41:39.056Z,101288.81
2022-09-12T15:44:12.713Z,101291.38
2022-09-12T15:46:43.232Z,101293.13
2022-09-12T15:49:13.606Z,101287.50
2022-09-12T15:51:44.695Z,101289.59
2022-09-12T15:54:16.663Z,101304.00
2022-09-12T15:56:47.893Z,101295.03
2022-09-12T15:59:21.213Z,101298.81
2022-09-12T16:01:51.218Z,101295.03
2022-09-12T16:04:25.605Z,101291.53
2022-09-12T16:06:58.381Z,101298.00
2022-09-12T16:09:30.728Z,101290.97
2022-09-12T16:12:01.686Z,101294.75
2022-09-12T16:14:31.646Z,101295.94
2022-09-12T16:17:01.986Z,101286.28
2022-09-12T16:19:31.967Z,101290.00
2022-09-12T16:22:02.205Z,101290.34
2022-09-12T16:24:35.041Z,101291.44
2022-09-12T16:27:05.429Z,101289.09
2022-09-12T16:29:36.395Z,101279.56
2022-09-12T16:32:06.525Z,101287.59
2022-09-12T16:34:36.712Z,101280.63
2022-09-12T16:37:07.087Z,101286.19
2022-09-12T16:39:38.863Z,101284.75
2022-09-12T16:42:09.365Z,101287.66
2022-09-12T16:44:39.654Z,101281.63
2022-09-12T16:47:09.667Z,101281.00
2022-09-12T16:49:40.262Z,101277.75
2022-09-12T16:52:11.694Z,101277.16
2022-09-12T16:54:43.066Z,101276.47
2022-09-12T16:57:13.216Z,101279.88
2022-09-12T16:59:43.753Z,101281.00
2022-09-12T17:02:14.956Z,101277.66
2022-09-12T17:04:45.284Z,101277.25
2022-09-12T17:07:15.366Z,101280.41
2022-09-12T17:09:48.048Z,101272.44
2022-09-12T17:12:18.413Z,101276.13
2022-09-12T17:14:48.292Z,101279.34
2022-09-12T17:17:18.144Z,101276.84
2022-09-12T17:19:48.432Z,101282.09
2022-09-12T17:22:18.239Z,101275.88
2022-09-12T17:24:49.693Z,101278.66
2022-09-12T17:27:19.857Z,101279.69
2022-09-12T17:29:49.774Z,101289.44
2022-09-12T17:32:19.697Z,101290.44
2022-09-12T17:34:50.997Z,101287.84
2022-09-12T17:37:22.031Z,101286.13
2022-09-12T17:39:53.772Z,101285.31
2022-09-12T17:42:24.643Z,101285.38
2022-09-12T17:44:55.965Z,101285.50
2022-09-12T17:47:25.914Z,101283.00
2022-09-12T17:50:14.550Z,101235.47
2022-09-12T17:52:46.572Z,101291.16
2022-09-12T17:55:18.225Z,101287.69
2022-09-12T17:57:48.836Z,101290.41
2022-09-12T18:00:39.993Z,101299.38
2022-09-12T18:03:09.065Z,101297.69
2022-09-12T18:05:46.325Z,101295.97
2022-09-12T18:08:16.433Z,101297.81
2022-09-12T18:10:48.675Z,101291.56
2022-09-12T18:13:18.928Z,101289.88
2022-09-12T18:15:49.834Z,101295.25
2022-09-12T18:18:21.255Z,101288.19
2022-09-12T18:20:55.001Z,101297.09
2022-09-12T18:23:25.575Z,101295.25
2022-09-12T18:26:05.271Z,101287.34
2022-09-12T18:28:37.153Z,101299.81
2022-09-12T18:31:14.654Z,101296.28
2022-09-12T18:33:47.428Z,101292.75
2022-09-12T18:36:19.072Z,101295.44
2022-09-12T18:38:51.948Z,101286.63
2022-09-12T18:41:26.513Z,101287.50
2022-09-12T18:43:59.605Z,101297.34
2022-09-12T18:46:33.055Z,101290.34
2022-09-12T18:49:03.761Z,101287.72
2022-09-12T18:51:36.343Z,101284.19
2022-09-12T18:54:09.080Z,101291.34
2022-09-12T18:56:44.391Z,101283.38
2022-09-12T18:59:15.607Z,101287.78
2022-09-12T19:01:46.213Z,101283.34
2022-09-12T19:04:16.907Z,101289.63
2022-09-12T19:06:49.016Z,101281.66
2022-09-12T19:09:20.896Z,101282.59
2022-09-12T19:11:53.004Z,101282.66
2022-09-12T19:14:25.236Z,101292.41
2022-09-12T19:16:56.258Z,101288.03
2022-09-12T19:19:26.898Z,101280.09
2022-09-12T19:21:58.389Z,101279.19
2022-09-12T19:24:29.397Z,101274.75
2022-09-12T19:27:06.074Z,101273.88
2022-09-12T19:29:36.613Z,101270.31
2022-09-12T19:32:09.994Z,101267.69
2022-09-12T19:34:44.354Z,101257.94
2022-09-12T19:37:19.004Z,101259.72
2022-09-12T19:39:50.372Z,101251.75
2022-09-12T19:42:23.823Z,101252.66
2022-09-12T19:44:56.228Z,101258.91
2022-09-12T19:47:28.292Z,101258.94
2022-09-12T19:50:01.783Z,101244.81
2022-09-12T19:52:35.174Z,101243.91
2022-09-12T19:55:05.355Z,101248.38
2022-09-12T19:57:37.663Z,101238.66
2022-09-12T20:00:09.004Z,101241.31
2022-09-12T20:02:39.901Z,101244.03
2022-09-12T20:05:10.463Z,101244.03
2022-09-12T20:07:40.676Z,101246.69
2022-09-12T20:10:11.508Z,101245.81
2022-09-12T20:12:43.454Z,101241.41
2022-09-12T20:15:16.265Z,101238.75
2022-09-12T20:17:48.276Z,101241.38
2022-09-12T20:20:19.074Z,101235.19
2022-09-12T20:22:52.865Z,101234.31
2022-09-12T20:25:23.803Z,101234.28
2022-09-12T20:27:59.969Z,101237.81
2022-09-12T20:30:30.285Z,101240.50
2022-09-12T20:33:00.638Z,101225.47
2022-09-12T20:35:30.898Z,101231.59
2022-09-12T20:38:01.165Z,101223.66
2022-09-12T20:40:31.365Z,101229.88
2022-09-12T20:43:03.161Z,101219.25
2022-09-12T20:45:33.725Z,101214.81
2022-09-12T20:48:05.106Z,101213.94
2022-09-12T20:50:35.630Z,101214.84
2022-09-12T20:53:06.210Z,101212.22
2022-09-12T20:55:36.992Z,101216.63
2022-09-12T20:58:08.980Z,101217.53
2022-09-12T21:00:40.874Z,101215.81
2022-09-12T21:03:10.835Z,101222.91
2022-09-12T21:05:41.374Z,101220.28
2022-09-12T21:08:11.693Z,101212.31
2022-09-12T21:10:43.176Z,101207.88
2022-09-12T21:13:15.230Z,101207.91
2022-09-12T21:15:45.590Z,101211.47
2022-09-12T21:18:15.632Z,101212.31
2022-09-12T21:20:52.685Z,101202.59
2022-09-12T21:23:23.304Z,101204.38
2022-09-12T21:25:54.143Z,101201.72
2022-09-12T21:28:25.554Z,101194.69
2022-09-12T21:30:56.225Z,101192.94
2022-09-12T21:33:26.453Z,101190.28
2022-09-12T21:35:58.191Z,101185.00
2022-09-12T21:38:27.753Z,101186.75
2022-09-12T21:41:06.045Z,101183.22
2022-09-12T21:43:37.955Z,101183.22
2022-09-12T21:46:10.368Z,101181.47
2022-09-12T21:48:40.524Z,101174.41
2022-09-12T21:51:10.745Z,101167.31
2022-09-12T21:53:40.784Z,101171.75
2022-09-12T21:56:11.546Z,101169.09
2022-09-12T21:58:42.959Z,101165.56
2022-09-12T22:01:14.512Z,101170.00
2022-09-12T22:03:45.193Z,101166.47
2022-09-12T22:06:17.760Z,101165.59
2022-09-12T22:08:50.735Z,101162.94
2022-09-12T22:11:22.374Z,101163.81
2022-09-12T22:13:53.855Z,101169.16
2022-09-12T22:16:24.160Z,101179.75
2022-09-12T22:18:54.293Z,101170.91
2022-09-12T22:21:25.470Z,101170.91
2022-09-12T22:24:12.940Z,101171.78
2022-09-12T22:26:43.767Z,101174.44
2022-09-12T22:29:15.685Z,101183.31
2022-09-12T22:31:45.829Z,101172.69
2022-09-12T22:34:16.059Z,101175.34
2022-09-12T22:36:46.720Z,101174.47
2022-09-12T22:39:17.140Z,101176.22
2022-09-12T22:41:47.142Z,101172.69
2022-09-12T22:44:19.080Z,101174.47
2022-09-12T22:46:49.125Z,101175.34
2022-09-12T22:49:19.363Z,101172.69
2022-09-12T22:51:49.469Z,101164.75
2022-09-12T22:54:19.809Z,101161.25
2022-09-12T22:56:49.932Z,101161.19
2022-09-12T22:59:21.741Z,101161.19
2022-09-12T23:01:51.311Z,101161.19
2022-09-12T23:04:21.490Z,101162.97
2022-09-12T23:06:51.461Z,101151.50
2022-09-12T23:09:21.751Z,101155.94
2022-09-12T23:11:52.409Z,101152.41
2022-09-12T23:14:24.092Z,101151.53
2022-09-12T23:16:53.679Z,101153.28
2022-09-12T23:19:23.702Z,101151.47
2022-09-12T23:21:53.631Z,101140.03
2022-09-12T23:24:23.809Z,101148.81
2022-09-12T23:26:53.793Z,101143.53
2022-09-12T23:29:25.250Z,101140.03
2022-09-12T23:31:55.752Z,101133.81
2022-09-12T23:34:25.640Z,101133.81
2022-09-12T23:36:56.840Z,101125.91
2022-09-12T23:39:27.049Z,101122.38
2022-09-12T23:41:57.229Z,101118.84
2022-09-12T23:44:28.671Z,101117.06
2022-09-12T23:46:58.909Z,101123.25
2022-09-12T23:49:28.821Z,101118.81
2022-09-12T23:51:58.641Z,101115.31
2022-09-12T23:54:28.769Z,101119.72
2022-09-12T23:56:58.849Z,101115.31
2022-09-12T23:59:31.269Z,101119.72
